Time;durP1;ratioP1;P1;durP2;ratioP2;P2;SDS_P1;SDS_P2;PMS_P1;PMS_P2;Temp;Humidity;BMP_temperature;BMP_pressure;BME280_temperature;BME280_humidity;BME280_pressure;Samples;Min_cycle;Max_cycle;Signal;HPM_P1;HPM_P2
2022/12/07 00:01:28;;;;;;;8.23;5.13;;;;;;;13.25;48.68;101575.19;4866009;29;20029;-61
2022/12/07 00:04:04;;;;;;;13.27;5.72;;;;;;;13.27;48.08;101581.28;4881944;29;20036;-61
2022/12/07 00:06:30;;;;;;;10.10;5.03;;;;;;;13.29;48.81;101580.16;4869065;29;20024;-62
2022/12/07 00:08:55;;;;;;;11.45;4.97;;;;;;;13.27;48.29;101571.38;4881204;29;20032;-62
2022/12/07 00:11:22;;;;;;;13.00;6.50;;;;;;;13.29;48.88;101565.84;4867270;29;20071;-61
2022/12/07 00:13:52;;;;;;;10.85;5.13;;;;;;;13.30;48.73;101564.88;4865874;29;20431;-62
2022/12/07 00:16:19;;;;;;;9.57;5.07;;;;;;;13.30;47.65;101559.50;4867268;29;20033;-61
2022/12/07 00:18:45;;;;;;;7.32;4.60;;;;;;;13.30;48.10;101565.75;4882106;29;20048;-61
2022/12/07 00:21:13;;;;;;;9.50;4.82;;;;;;;13.29;47.58;101558.66;4868027;29;20032;-61
2022/12/07 00:23:40;;;;;;;8.70;4.47;;;;;;;13.28;48.95;101556.09;4881313;29;20161;-61
2022/12/07 00:26:11;;;;;;;7.78;4.63;;;;;;;13.26;48.98;101553.50;4865722;29;20136;-61
2022/12/07 00:28:37;;;;;;;8.23;4.75;;;;;;;13.27;47.63;101559.75;4881312;29;20037;-61
2022/12/07 00:31:08;;;;;;;10.13;4.43;;;;;;;13.25;47.78;101553.66;4865666;29;20044;-61
2022/12/07 00:33:34;;;;;;;9.48;5.03;;;;;;;13.24;47.67;101555.50;4865362;29;20478;-61
2022/12/07 00:36:00;;;;;;;11.98;5.93;;;;;;;13.24;47.67;101554.63;4881125;29;20029;-61
2022/12/07 00:38:28;;;;;;;11.27;5.05;;;;;;;13.22;48.67;101551.22;4866121;29;20541;-62
2022/12/07 00:40:55;;;;;;;9.45;4.70;;;;;;;13.20;47.57;101547.81;4865447;29;20069;-61
2022/12/07 00:43:20;;;;;;;9.60;4.97;;;;;;;13.22;47.52;101554.78;4881884;29;20406;-61
2022/12/07 00:45:46;;;;;;;9.73;4.75;;;;;;;13.22;48.24;101562.00;4881024;29;20073;-62
2022/12/07 00:48:11;;;;;;;9.52;4.45;;;;;;;13.21;47.72;101566.50;4865630;29;20036;-62
2022/12/07 00:50:37;;;;;;;9.73;4.45;;;;;;;13.16;47.87;101563.34;4899009;29;20060;-61
2022/12/07 00:53:02;;;;;;;11.60;4.78;;;;;;;13.21;47.90;101562.94;4851022;29;20435;-61
2022/12/07 00:55:28;;;;;;;11.00;5.30;;;;;;;13.20;48.26;101563.97;4883037;29;20037;-61
2022/12/07 00:57:53;;;;;;;9.02;5.10;;;;;;;13.19;48.06;101563.09;4881315;29;20102;-61
2022/12/07 01:00:19;;;;;;;10.82;5.15;;;;;;;13.17;47.95;101565.06;4881091;29;20036;-62
2022/12/07 01:02:44;;;;;;;11.13;5.07;;;;;;;13.17;47.71;101557.00;4881860;29;20047;-62
2022/12/07 01:05:09;;;;;;;8.68;4.75;;;;;;;13.15;48.52;101555.41;4897873;29;20116;-61
2022/12/07 01:07:35;;;;;;;9.57;5.00;;;;;;;13.16;48.13;101557.97;4880782;29;20040;-61
2022/12/07 01:10:00;;;;;;;7.35;4.80;;;;;;;13.17;47.82;101559.69;4868936;29;20120;-61
2022/12/07 01:12:25;;;;;;;15.23;5.30;;;;;;;13.18;48.61;101557.81;4868985;29;20547;-61
2022/12/07 01:14:51;;;;;;;9.82;5.05;;;;;;;13.17;47.86;101559.69;4885482;29;20055;-61
2022/12/07 01:17:16;;;;;;;14.65;4.80;;;;;;;13.16;48.71;101563.34;4884716;29;20033;-62
2022/12/07 01:19:41;;;;;;;10.68;6.13;;;;;;;13.13;48.45;101552.84;4884033;29;20096;-61
2022/12/07 01:22:07;;;;;;;12.57;5.97;;;;;;;13.14;48.57;101562.63;4868369;29;20403;-61
2022/12/07 01:24:32;;;;;;;20.35;7.25;;;;;;;13.10;48.73;101557.63;4868366;29;20092;-61
2022/12/07 01:26:57;;;;;;;13.75;6.22;;;;;;;13.11;48.79;101557.50;4900635;29;20028;-61
2022/12/07 01:29:23;;;;;;;15.13;7.97;;;;;;;13.11;48.70;101565.56;4901108;29;20037;-61
2022/12/07 01:31:49;;;;;;;15.07;7.30;;;;;;;13.11;48.01;101565.56;4883871;29;20447;-61
2022/12/07 01:34:14;;;;;;;17.73;6.82;;;;;;;13.12;47.92;101564.56;4884779;29;20037;-62
2022/12/07 01:36:40;;;;;;;18.02;6.68;;;;;;;13.09;48.08;101556.75;4900742;29;20535;-62
2022/12/07 01:39:07;;;;;;;14.35;6.88;;;;;;;13.13;48.90;101568.97;4869839;29;20029;-62
2022/12/07 01:41:35;;;;;;;16.30;7.65;;;;;;;13.13;48.52;101560.91;4884654;29;20039;-62
2022/12/07 01:44:18;;;;;;;13.43;7.25;;;;;;;13.14;48.72;101553.72;4885037;29;20037;-62
2022/12/07 01:46:55;;;;;;;14.38;6.68;;;;;;;13.14;48.50;101559.09;4884245;29;20037;-61
2022/12/07 01:49:21;;;;;;;16.50;6.97;;;;;;;13.13;49.08;101562.75;4901678;29;20525;-61
2022/12/07 01:51:47;;;;;;;18.23;7.03;;;;;;;13.13;48.41;101554.66;4900550;29;20044;-61
2022/12/07 01:54:14;;;;;;;17.90;7.88;;;;;;;13.09;48.52;101551.38;4867870;29;20105;-61
2022/12/07 01:56:44;;;;;;;15.00;7.38;;;;;;;13.11;48.89;101556.66;4885077;29;20088;-62
2022/12/07 01:59:09;;;;;;;14.25;6.78;;;;;;;13.12;48.63;101559.19;4884081;29;20031;-62
2022/12/07 02:01:35;;;;;;;13.68;6.95;;;;;;;13.12;48.68;101547.59;4900093;29;20044;-61
2022/12/07 02:04:00;;;;;;;13.63;6.97;;;;;;;13.08;49.03;101538.06;4900093;29;20040;-62
2022/12/07 02:06:32;;;;;;;11.52;6.90;;;;;;;13.13;48.93;101552.84;4868067;29;20028;-61
2022/12/07 02:08:57;;;;;;;19.17;8.30;;;;;;;13.12;48.43;101551.13;4868117;29;20048;-62
2022/12/07 02:11:23;;;;;;;13.85;7.20;;;;;;;13.12;48.86;101548.44;4901278;29;20041;-61
2022/12/07 02:13:49;;;;;;;17.13;7.78;;;;;;;13.11;47.91;101543.19;4883475;29;20099;-61
2022/12/07 02:16:59;;;;;;;15.88;7.63;;;;;;;13.13;48.76;101550.16;4883311;29;20041;-62
2022/12/07 02:19:27;;;;;;;13.20;7.07;;;;;;;13.13;49.13;101547.47;4868228;29;20044;-61
2022/12/07 02:21:58;;;;;;;13.90;7.28;;;;;;;13.12;47.85;101547.59;4899142;29;20095;-62
2022/12/07 02:25:06;;;;;;;15.77;8.52;;;;;;;13.08;48.12;101543.44;4884317;29;20444;-61
2022/12/07 02:27:47;;;;;;;19.52;8.18;;;;;;;13.10;48.38;101547.72;4899720;29;20032;-61
2022/12/07 02:30:19;;;;;;;19.77;8.70;;;;;;;13.09;48.47;101551.38;4868996;29;20036;-62
2022/12/07 02:33:16;;;;;;;18.40;8.60;;;;;;;13.11;49.00;101559.34;4867500;29;20032;-61
2022/12/07 02:35:49;;;;;;;15.02;8.02;;;;;;;13.10;47.94;101553.09;4882566;29;20032;-61
2022/12/07 02:38:28;;;;;;;13.20;7.72;;;;;;;13.10;48.13;101550.41;4883239;29;20036;-62
2022/12/07 02:41:10;;;;;;;15.77;7.90;;;;;;;13.09;48.87;101550.56;4899602;29;20037;-62
2022/12/07 02:43:43;;;;;;;12.85;7.40;;;;;;;13.09;48.63;101539.78;4867018;29;20083;-61
2022/12/07 02:46:13;;;;;;;12.50;7.32;;;;;;;13.10;48.79;101542.34;4882480;29;20077;-61
2022/12/07 02:48:39;;;;;;;16.60;8.60;;;;;;;13.09;48.11;101540.63;4882602;29;20499;-62
2022/12/07 02:51:05;;;;;;;16.70;8.02;;;;;;;13.10;48.27;101533.41;4882131;29;20040;-62
2022/12/07 02:53:33;;;;;;;15.48;7.55;;;;;;;13.09;48.72;101529.03;4882705;29;20152;-61
2022/12/07 02:56:07;;;;;;;15.15;7.43;;;;;;;13.09;49.28;101537.94;4882407;29;20092;-62
2022/12/07 02:58:48;;;;;;;12.95;7.38;;;;;;;13.09;49.30;101535.25;4899391;29;20037;-62
2022/12/07 03:01:35;;;;;;;12.60;7.25;;;;;;;13.10;49.17;101545.03;4899190;29;20036;-61
2022/12/07 03:04:13;;;;;;;12.50;7.63;;;;;;;13.07;48.53;101537.22;4882252;29;20032;-61
2022/12/07 03:06:43;;;;;;;12.07;6.70;;;;;;;13.10;48.37;101542.34;4882178;29;20028;-61
2022/12/07 03:09:26;;;;;;;13.32;7.70;;;;;;;13.09;48.47;101529.03;4882237;29;20507;-62
2022/12/07 03:12:00;;;;;;;14.27;6.88;;;;;;;13.10;49.26;101538.78;4882210;29;20041;-61
2022/12/07 03:14:35;;;;;;;13.60;6.97;;;;;;;13.10;48.67;101536.97;4866982;29;20123;-61
2022/12/07 03:17:11;;;;;;;12.48;6.25;;;;;;;13.08;48.82;101530.88;4882010;29;20044;-62
2022/12/07 03:19:37;;;;;;;13.80;7.47;;;;;;;13.11;49.27;101532.44;4878831;29;20396;-61
2022/12/07 03:22:06;;;;;;;11.98;6.40;;;;;;;13.13;48.99;101544.78;4879085;29;20068;-61
2022/12/07 03:24:36;;;;;;;10.70;6.25;;;;;;;13.10;49.19;101550.41;4878848;29;20507;-61
2022/12/07 03:27:09;;;;;;;11.80;6.68;;;;;;;13.09;48.20;101548.69;4878868;29;20387;-61
2022/12/07 03:29:37;;;;;;;12.15;6.63;;;;;;;13.09;49.14;101548.69;4880266;29;20080;-61
2022/12/07 03:32:31;;;;;;;21.75;7.05;;;;;;;13.07;48.84;101545.28;4863301;29;20403;-61
2022/12/07 03:35:12;;;;;;;13.85;6.28;;;;;;;13.05;48.41;101541.84;4861511;29;20081;-62
2022/12/07 03:37:46;;;;;;;15.30;6.30;;;;;;;13.07;48.97;101539.91;4878728;29;20044;-62
2022/12/07 03:40:22;;;;;;;9.95;6.90;;;;;;;13.07;48.17;101541.69;4878540;29;20411;-61
2022/12/07 03:42:48;;;;;;;12.75;6.75;;;;;;;13.06;48.24;101538.19;4879833;29;20051;-61
2022/12/07 03:45:14;;;;;;;12.77;6.93;;;;;;;13.06;48.43;101530.13;4878521;29;20084;-61
2022/12/07 03:48:06;;;;;;;13.18;6.90;;;;;;;13.06;49.72;101534.63;4878804;29;20391;-61
2022/12/07 03:50:45;;;;;;;13.68;6.93;;;;;;;13.07;48.79;101537.22;4878666;29;20044;-61
2022/12/07 03:53:24;;;;;;;10.52;6.72;;;;;;;13.09;49.42;101531.72;4879586;29;20073;-61
2022/12/07 03:55:50;;;;;;;12.20;6.78;;;;;;;13.10;48.18;101525.34;4877524;29;20380;-61
2022/12/07 03:58:19;;;;;;;15.02;7.13;;;;;;;13.12;49.16;101521.53;4878285;29;20052;-61
2022/12/07 04:00:45;;;;;;;13.90;7.28;;;;;;;13.11;48.72;101525.22;4878113;29;20097;-61
2022/12/07 04:03:11;;;;;;;12.18;7.13;;;;;;;13.11;48.74;101527.06;4862809;29;20041;-61
2022/12/07 04:05:37;;;;;;;15.75;7.47;;;;;;;13.11;49.51;101527.06;4863097;29;20033;-62
2022/12/07 04:08:03;;;;;;;12.43;7.63;;;;;;;13.08;48.62;101528.16;4862811;29;20044;-61
2022/12/07 04:10:28;;;;;;;18.85;7.15;;;;;;;13.05;49.47;101533.78;4862580;29;20044;-62
2022/12/07 04:12:53;;;;;;;18.98;7.63;;;;;;;13.03;48.80;101534.88;4877986;29;20041;-61
2022/12/07 04:15:19;;;;;;;19.13;8.27;;;;;;;13.03;48.69;101529.50;4862574;29;20033;-61
2022/12/07 04:17:44;;;;;;;18.23;8.10;;;;;;;13.00;48.63;101521.69;4881833;29;20106;-62
2022/12/07 04:20:10;;;;;;;15.50;7.60;;;;;;;12.99;48.62;101511.91;4881474;29;20039;-62
2022/12/07 04:22:36;;;;;;;13.23;6.72;;;;;;;12.99;49.00;101528.91;4897760;29;20549;-61
2022/12/07 04:25:01;;;;;;;13.85;7.10;;;;;;;12.99;48.70;101526.22;4881096;29;20041;-62
2022/12/07 04:27:26;;;;;;;14.27;7.35;;;;;;;12.96;48.35;101531.84;4881562;29;20044;-61
2022/12/07 04:29:52;;;;;;;16.83;7.35;;;;;;;12.95;49.29;101532.84;4865551;29;20379;-62
2022/12/07 04:32:17;;;;;;;11.65;6.35;;;;;;;12.94;49.36;101528.44;4866054;29;20036;-61
2022/12/07 04:34:42;;;;;;;17.15;7.10;;;;;;;12.95;48.31;101524.78;4865576;29;20044;-61
2022/12/07 04:37:11;;;;;;;12.45;6.65;;;;;;;12.92;48.36;101524.16;4898251;29;20057;-61
2022/12/07 04:39:36;;;;;;;15.15;7.00;;;;;;;12.94;48.43;101530.25;4881231;29;20044;-61
2022/12/07 04:42:02;;;;;;;10.52;6.60;;;;;;;12.92;49.37;101526.84;4865364;29;20041;-61
2022/12/07 04:44:28;;;;;;;12.55;7.78;;;;;;;12.93;49.18;101532.09;4883010;29;20115;-61
2022/12/07 04:46:54;;;;;;;9.07;6.05;;;;;;;12.94;49.11;101530.25;4884731;29;20048;-61
2022/12/07 04:49:20;;;;;;;12.57;6.53;;;;;;;12.94;48.37;101531.13;4884729;29;20087;-61
2022/12/07 04:51:46;;;;;;;9.85;6.15;;;;;;;12.95;49.22;101532.84;4869317;29;20506;-61
2022/12/07 04:54:13;;;;;;;11.57;6.93;;;;;;;12.95;48.14;101526.59;4884812;29;20044;-62
2022/12/07 04:56:39;;;;;;;13.50;6.57;;;;;;;12.95;49.24;101527.47;4885265;29;20069;-61
2022/12/07 04:59:04;;;;;;;10.93;5.97;;;;;;;12.95;48.97;101522.09;4884963;29;20165;-61
2022/12/07 05:01:31;;;;;;;11.07;6.25;;;;;;;12.92;48.34;101527.72;4885398;29;20039;-61
2022/12/07 05:03:56;;;;;;;11.98;6.18;;;;;;;12.93;48.16;101517.78;4884550;29;20064;-61
2022/12/07 05:06:22;;;;;;;14.23;6.70;;;;;;;12.94;48.32;101517.69;4884868;29;20111;-62
2022/12/07 05:08:47;;;;;;;12.70;6.50;;;;;;;12.90;49.36;101515.38;4884291;29;20494;-62
2022/12/07 05:11:37;;;;;;;10.73;6.75;;;;;;;12.90;49.45;101513.53;4884745;29;20157;-61
2022/12/07 05:13:59;;;;;;;12.25;5.47;;;;;;;12.91;49.26;101523.31;4886842;29;20041;-62
2022/12/07 05:16:25;;;;;;;12.38;5.75;;;;;;;12.89;49.28;101527.97;4868772;29;20176;-62
2022/12/07 05:18:50;;;;;;;11.95;6.50;;;;;;;12.91;48.53;101520.63;4880931;29;20566;-61
2022/12/07 05:21:15;;;;;;;8.68;4.95;;;;;;;12.94;48.98;101530.25;4882343;29;20033;-61
2022/12/07 05:23:41;;;;;;;8.77;5.75;;;;;;;12.94;49.44;101531.13;4882064;29;20073;-62
2022/12/07 05:26:06;;;;;;;14.65;6.60;;;;;;;12.93;48.88;101523.16;4865868;29;20506;-61
2022/12/07 05:28:32;;;;;;;8.43;5.22;;;;;;;12.94;48.72;101524.88;4865559;29;20051;-61
2022/12/07 05:30:57;;;;;;;10.90;6.15;;;;;;;12.95;49.46;101524.78;4849854;29;20081;-61
2022/12/07 05:33:22;;;;;;;11.73;5.97;;;;;;;12.95;48.58;101527.47;4881996;29;20044;-61
2022/12/07 05:35:48;;;;;;;11.75;5.93;;;;;;;12.95;49.34;101526.59;4865483;29;20041;-61
2022/12/07 05:38:13;;;;;;;8.93;5.70;;;;;;;12.93;49.56;101521.34;4882308;29;20033;-61
2022/12/07 05:40:39;;;;;;;11.40;6.18;;;;;;;12.96;48.87;101530.97;4880586;29;20048;-61
2022/12/07 05:43:04;;;;;;;23.83;6.72;;;;;;;12.93;49.02;101521.34;4864998;29;20041;-61
2022/12/07 05:45:29;;;;;;;13.93;6.30;;;;;;;12.94;49.44;101517.69;4881245;29;20043;-62
2022/12/07 05:47:55;;;;;;;11.93;6.35;;;;;;;12.95;48.44;101526.59;4865060;29;20040;-61
2022/12/07 05:50:20;;;;;;;13.80;6.53;;;;;;;12.94;48.20;101520.38;4882211;29;20033;-61
2022/12/07 05:52:45;;;;;;;11.70;6.95;;;;;;;12.94;48.60;101525.75;4864639;29;20114;-61
2022/12/07 05:55:11;;;;;;;15.52;7.55;;;;;;;12.93;48.99;101515.97;4880465;29;20053;-61
2022/12/07 05:57:36;;;;;;;13.75;7.47;;;;;;;12.94;49.31;101520.38;4864493;29;20560;-61
2022/12/07 06:00:03;;;;;;;13.23;7.10;;;;;;;12.92;48.79;101522.34;4865056;29;20037;-62
2022/12/07 06:02:28;;;;;;;12.20;6.90;;;;;;;12.92;49.02;101508.03;4880676;29;20035;-61
2022/12/07 06:04:54;;;;;;;11.38;6.85;;;;;;;12.93;48.24;101515.09;4865789;29;20037;-61
2022/12/07 06:07:19;;;;;;;15.38;6.82;;;;;;;12.92;48.40;101516.09;4880328;29;20040;-61
2022/12/07 06:09:45;;;;;;;16.52;7.40;;;;;;;12.92;49.11;101516.97;4880420;29;20137;-61
2022/12/07 06:14:55;;;;;;;17.67;7.60;;;;;;;12.92;49.39;101516.97;4880217;29;20101;-61
2022/12/07 06:17:23;;;;;;;12.07;6.53;;;;;;;12.90;48.34;101518.91;4865309;29;20482;-62
2022/12/07 06:19:49;;;;;;;14.50;6.85;;;;;;;12.91;49.36;101515.25;4879741;29;20065;-61
2022/12/07 06:22:15;;;;;;;17.05;7.45;;;;;;;12.91;48.42;101528.69;4880005;29;20064;-61
2022/12/07 06:24:41;;;;;;;18.48;7.82;;;;;;;12.90;49.74;101513.53;4881220;29;20052;-61
2022/12/07 06:27:07;;;;;;;12.18;7.18;;;;;;;12.91;49.63;101520.63;4864361;29;20071;-61
2022/12/07 06:29:33;;;;;;;17.63;7.25;;;;;;;12.88;48.43;101526.25;4880156;29;20032;-61
2022/12/07 06:31:58;;;;;;;11.65;6.65;;;;;;;12.88;49.19;101520.88;4879674;29;20033;-61
2022/12/07 06:34:24;;;;;;;12.43;7.05;;;;;;;12.90;48.36;101520.75;4864152;29;20036;-61
2022/12/07 06:36:54;;;;;;;13.10;6.65;;;;;;;12.89;48.51;101522.59;4879744;29;20112;-61
2022/12/07 06:39:29;;;;;;;15.75;7.07;;;;;;;12.87;48.62;101531.75;4864432;29;20033;-61
2022/12/07 06:41:55;;;;;;;12.25;7.15;;;;;;;12.84;48.66;101524.81;4879701;29;20055;-61
2022/12/07 06:44:21;;;;;;;12.35;6.80;;;;;;;12.84;49.48;101524.81;4864304;29;20479;-62
2022/12/07 06:46:47;;;;;;;11.38;7.13;;;;;;;12.86;49.68;101528.22;4880835;29;20124;-61
2022/12/07 06:49:13;;;;;;;12.25;7.50;;;;;;;12.82;49.17;101521.38;4879354;29;20160;-61
2022/12/07 06:51:41;;;;;;;14.10;7.18;;;;;;;12.85;49.70;101523.81;4879654;29;20029;-61
2022/12/07 06:54:10;;;;;;;12.13;6.68;;;;;;;12.87;49.27;101521.84;4879221;29;20037;-61
2022/12/07 06:56:36;;;;;;;19.92;7.30;;;;;;;12.89;48.72;101519.91;4879905;29;20436;-61
2022/12/07 06:59:02;;;;;;;13.38;7.35;;;;;;;12.88;49.25;101526.25;4879345;29;20137;-60
2022/12/07 07:01:27;;;;;;;15.38;6.72;;;;;;;12.88;48.61;101515.50;4863673;29;20033;-61
2022/12/07 07:03:52;;;;;;;16.52;7.38;;;;;;;12.90;49.36;101518.06;4879494;29;20037;-61
2022/12/07 07:06:18;;;;;;;16.08;7.50;;;;;;;12.92;49.44;101516.09;4880422;29;20108;-61
2022/12/07 07:08:43;;;;;;;15.07;7.20;;;;;;;12.92;48.74;101527.72;4880535;29;20040;-61
2022/12/07 07:11:10;;;;;;;13.93;7.47;;;;;;;12.91;48.58;101519.75;4864338;29;20033;-61
2022/12/07 07:13:35;;;;;;;16.00;7.32;;;;;;;12.91;49.25;101522.44;4879029;29;20215;-61
2022/12/07 07:16:01;;;;;;;13.27;6.53;;;;;;;12.92;49.01;101521.47;4879077;29;20526;-61
2022/12/07 07:18:26;;;;;;;11.15;5.75;;;;;;;12.91;49.72;101525.13;4847965;29;20045;-61
2022/12/07 07:20:52;;;;;;;13.73;7.15;;;;;;;12.90;49.22;101528.81;4878666;29;20037;-61
2022/12/07 07:23:18;;;;;;;23.40;7.90;;;;;;;12.91;48.70;101531.38;4863669;29;20032;-61
2022/12/07 07:25:44;;;;;;;16.33;7.13;;;;;;;12.89;49.06;101524.41;4878999;29;20109;-61
2022/12/07 07:28:10;;;;;;;15.82;7.07;;;;;;;12.88;48.90;101522.69;4878783;29;20062;-61
2022/12/07 07:30:35;;;;;;;19.15;7.07;;;;;;;12.90;48.85;101528.81;4878646;29;20033;-61
2022/12/07 07:33:02;;;;;;;19.52;7.72;;;;;;;12.89;48.69;101525.28;4879080;29;20029;-61
2022/12/07 07:35:28;;;;;;;13.43;6.80;;;;;;;12.90;49.16;101523.44;4879548;29;20483;-61
2022/12/07 07:37:54;;;;;;;12.18;7.60;;;;;;;12.86;49.42;101525.53;4878556;29;20037;-61
2022/12/07 07:40:20;;;;;;;14.38;7.05;;;;;;;12.84;48.43;101520.25;4863059;29;20119;-61
2022/12/07 07:42:50;;;;;;;12.25;6.53;;;;;;;12.85;49.68;101526.50;4847478;29;20119;-61
2022/12/07 07:45:16;;;;;;;15.27;6.78;;;;;;;12.82;49.32;101532.97;4862807;29;20399;-61
2022/12/07 07:47:42;;;;;;;15.60;7.88;;;;;;;12.80;49.12;101528.72;4879761;29;20456;-61
2022/12/07 07:50:07;;;;;;;16.30;7.57;;;;;;;12.78;49.46;101528.00;4878871;29;20061;-61
2022/12/07 07:52:33;;;;;;;18.25;7.38;;;;;;;12.77;48.32;101523.59;4878363;29;20037;-61
2022/12/07 07:54:58;;;;;;;15.00;7.70;;;;;;;12.81;48.75;101530.44;4878149;29;20101;-62
2022/12/07 07:57:23;;;;;;;16.90;7.57;;;;;;;12.78;48.60;101536.06;4879319;29;20165;-62
2022/12/07 07:59:49;;;;;;;15.77;6.82;;;;;;;12.79;48.28;101538.59;4879348;29;20065;-61
2022/12/07 08:02:16;;;;;;;16.02;7.85;;;;;;;12.79;49.06;101538.59;4879107;29;20395;-61
2022/12/07 08:04:42;;;;;;;19.65;9.52;;;;;;;12.80;49.47;101534.94;4879438;29;20064;-61
2022/12/07 08:07:07;;;;;;;21.25;9.55;;;;;;;12.82;49.29;101537.50;4878234;29;20057;-61
2022/12/07 08:09:33;;;;;;;17.60;8.10;;;;;;;12.84;48.55;101540.94;4862561;29;20033;-61
2022/12/07 08:11:58;;;;;;;20.95;9.40;;;;;;;12.83;49.32;101545.47;4879199;29;20064;-61
2022/12/07 08:14:24;;;;;;;22.25;8.73;;;;;;;12.85;48.35;101539.94;4878267;29;20506;-61
2022/12/07 08:16:49;;;;;;;14.95;7.90;;;;;;;12.85;48.64;101553.38;4877718;29;20045;-61
2022/12/07 08:19:15;;;;;;;19.58;9.07;;;;;;;12.86;48.83;101549.72;4846343;29;20096;-61
2022/12/07 08:21:40;;;;;;;23.38;10.15;;;;;;;12.84;49.05;101547.16;4877845;29;20052;-61
2022/12/07 08:24:06;;;;;;;19.05;9.38;;;;;;;12.85;49.13;101539.94;4879007;29;20041;-61
2022/12/07 08:26:32;;;;;;;22.48;9.68;;;;;;;12.84;48.75;101546.31;4878339;29;20113;-61
2022/12/07 08:28:57;;;;;;;15.13;8.63;;;;;;;12.78;48.34;101546.81;4877849;29;20124;-61
2022/12/07 08:31:24;;;;;;;18.65;8.45;;;;;;;12.77;49.46;101545.09;4877962;29;20041;-61
2022/12/07 08:33:49;;;;;;;16.50;8.00;;;;;;;12.74;48.20;101540.81;4878100;29;20045;-62
2022/12/07 08:36:15;;;;;;;17.63;8.15;;;;;;;12.78;49.26;101544.13;4862393;29;20407;-61
2022/12/07 08:38:41;;;;;;;17.25;8.07;;;;;;;12.90;48.23;101553.84;4862292;29;20040;-61
2022/12/07 08:41:07;;;;;;;20.52;9.15;;;;;;;12.98;48.38;101554.06;4863006;29;20038;-61
2022/12/07 08:43:33;;;;;;;30.63;8.40;;;;;;;13.05;48.43;101555.28;4862480;29;20407;-61
2022/12/07 08:46:19;;;;;;;19.65;10.15;;;;;;;13.12;48.03;101561.88;4878316;29;20044;-61
2022/12/07 08:48:51;;;;;;;17.17;8.13;;;;;;;13.13;49.02;101558.22;4877647;29;20033;-60
2022/12/07 08:51:16;;;;;;;21.75;9.07;;;;;;;13.15;49.11;101561.63;4878296;29;20048;-60
2022/12/07 08:53:42;;;;;;;21.25;9.43;;;;;;;13.17;48.55;101551.63;4877973;29;20045;-60
2022/12/07 08:56:08;;;;;;;23.65;9.57;;;;;;;13.18;48.49;101555.13;4877985;29;20033;-60
2022/12/07 08:58:34;;;;;;;20.30;8.90;;;;;;;13.10;48.16;101558.47;4878131;29;20041;-61
2022/12/07 09:01:00;;;;;;;26.48;10.18;;;;;;;13.10;48.45;101555.78;4878097;29;20037;-61
2022/12/07 09:03:25;;;;;;;18.75;8.73;;;;;;;13.10;49.24;101555.78;4878053;29;20410;-61
2022/12/07 09:05:52;;;;;;;21.20;9.23;;;;;;;13.10;48.41;101555.78;4878116;29;20025;-60
2022/12/07 09:08:18;;;;;;;20.65;9.20;;;;;;;13.10;48.93;101563.84;4877826;29;20039;-60
2022/12/07 09:10:43;;;;;;;16.70;8.68;;;;;;;13.07;48.24;101556.03;4862059;29;20116;-61
2022/12/07 09:13:09;;;;;;;27.45;8.90;;;;;;;13.11;48.66;101554.81;4878013;29;20039;-60
2022/12/07 09:15:34;;;;;;;21.67;8.43;;;;;;;13.12;48.13;101555.69;4879962;29;20064;-60
2022/12/07 09:17:59;;;;;;;23.77;9.38;;;;;;;13.13;48.68;101551.97;4878586;29;20052;-61
2022/12/07 09:20:25;;;;;;;18.98;9.27;;;;;;;13.18;48.69;101556.00;4878177;29;20611;-60
2022/12/07 09:22:50;;;;;;;16.50;8.25;;;;;;;13.21;49.12;101566.50;4878223;29;20049;-61
2022/12/07 09:25:16;;;;;;;16.58;9.00;;;;;;;13.20;48.95;101569.34;4878383;29;20045;-61
2022/12/07 09:27:41;;;;;;;19.50;8.40;;;;;;;13.15;49.14;101567.00;4879247;29;20040;-61
2022/12/07 09:30:07;;;;;;;18.10;8.95;;;;;;;13.15;49.18;101566.19;4863027;29;20139;-60
2022/12/07 09:32:33;;;;;;;18.42;9.57;;;;;;;13.15;48.92;101571.56;4882036;29;20472;-60
2022/12/07 09:34:58;;;;;;;13.43;7.82;;;;;;;13.13;48.53;101568.97;4865315;29;20125;-60
2022/12/07 09:37:23;;;;;;;17.88;8.90;;;;;;;13.12;48.50;101556.50;4865561;29;20073;-60
2022/12/07 09:39:49;;;;;;;18.25;7.60;;;;;;;13.19;48.14;101560.41;4880771;29;20119;-61
2022/12/07 09:42:29;;;;;;;18.52;8.65;;;;;;;13.26;48.60;101564.28;4882062;29;20037;-61
2022/12/07 09:44:55;;;;;;;17.23;8.15;;;;;;;13.35;47.90;101557.28;4880934;29;20391;-61
2022/12/07 09:47:21;;;;;;;17.00;8.65;;;;;;;13.45;49.02;101557.38;4880866;29;20037;-60
2022/12/07 09:49:46;;;;;;;19.05;8.48;;;;;;;13.57;47.67;101553.66;4880507;29;20060;-61
2022/12/07 09:52:11;;;;;;;17.17;8.25;;;;;;;13.66;49.23;101555.53;4864914;29;20120;-61
2022/12/07 09:54:41;;;;;;;15.75;7.85;;;;;;;13.74;47.89;101556.59;4880486;29;20128;-61
2022/12/07 09:57:08;;;;;;;18.58;7.35;;;;;;;13.92;48.54;101551.47;4880654;29;20097;-61
2022/12/07 09:59:33;;;;;;;13.98;8.52;;;;;;;14.60;47.45;101548.09;4865512;29;20037;-61
2022/12/07 10:02:22;;;;;;;14.52;8.20;;;;;;;14.75;48.14;101540.47;4880756;29;20037;-62
2022/12/07 10:04:47;;;;;;;19.08;7.95;;;;;;;15.35;45.78;101537.56;4865439;29;20029;-61
2022/12/07 10:07:13;;;;;;;15.50;7.32;;;;;;;15.74;46.58;101531.13;4880861;29;20578;-61
2022/12/07 10:09:38;;;;;;;20.80;8.13;;;;;;;16.15;45.84;101529.88;4864733;29;20443;-61
2022/12/07 10:12:11;;;;;;;18.23;8.25;;;;;;;16.55;46.14;101532.31;4880487;29;20071;-61
2022/12/07 10:14:37;;;;;;;;;;;;;;;16.93;44.73;101531.22;4881341;29;20022;-61
2022/12/07 10:17:25;;;;;;;11.95;6.53;;;;;;;17.40;44.98;101521.00;4881449;29;19968;-61
2022/12/07 10:19:51;;;;;;;19.17;8.35;;;;;;;17.83;45.48;101523.75;4881022;29;20053;-61
2022/12/07 10:22:17;;;;;;;11.70;6.75;;;;;;;18.08;45.20;101515.75;4864721;29;20041;-61
2022/12/07 10:24:46;;;;;;;12.63;6.97;;;;;;;18.62;44.08;101519.94;4864342;29;20033;-61
2022/12/07 10:27:26;;;;;;;10.90;5.45;;;;;;;19.10;43.69;101518.19;4864787;29;20048;-61
2022/12/07 10:29:53;;;;;;;11.85;6.05;;;;;;;19.08;44.54;101503.09;4864378;29;20080;-62
2022/12/07 10:32:18;;;;;;;13.55;6.22;;;;;;;18.88;44.32;101509.84;4880448;29;20021;-62
2022/12/07 10:34:44;;;;;;;14.52;6.10;;;;;;;19.03;44.61;101505.47;4879760;29;20049;-61
2022/12/07 10:37:12;;;;;;;11.88;5.20;;;;;;;19.27;44.06;101504.63;4864139;29;20041;-61
2022/12/07 10:39:41;;;;;;;13.77;5.45;;;;;;;19.32;43.64;101499.56;4879679;29;20029;-61
2022/12/07 10:42:22;;;;;;;13.20;5.82;;;;;;;19.44;43.89;101495.50;4880259;29;20041;-62
2022/12/07 10:45:15;;;;;;;9.48;5.68;;;;;;;19.59;43.80;101489.22;4864395;29;20029;-61
2022/12/07 10:48:15;;;;;;;10.60;5.72;;;;;;;20.00;42.73;101495.41;4864478;29;20512;-62
2022/12/07 10:51:11;;;;;;;13.95;6.05;;;;;;;20.06;43.39;101488.44;4869299;29;20045;-61
2022/12/07 10:54:09;;;;;;;8.65;5.35;;;;;;;19.81;43.01;101474.06;4881157;29;20033;-61
2022/12/07 10:56:42;;;;;;;8.68;5.85;;;;;;;19.90;43.50;101472.16;4880496;29;20065;-61
2022/12/07 10:59:27;;;;;;;13.38;4.90;;;;;;;19.54;43.38;101466.28;4864048;29;20028;-61
2022/12/07 11:01:59;;;;;;;12.75;4.35;;;;;;;19.15;43.95;101472.34;4879952;29;20517;-61
2022/12/07 11:04:44;;;;;;;11.02;3.67;;;;;;;18.91;43.74;101463.34;4863695;29;20116;-61
2022/12/07 11:07:22;;;;;;;6.65;2.60;;;;;;;18.84;43.84;101468.63;4848154;29;20085;-61
2022/12/07 11:10:00;;;;;;;9.55;3.00;;;;;;;19.24;43.15;101453.34;4848648;29;20040;-62
2022/12/07 11:12:51;;;;;;;4.55;2.88;;;;;;;18.98;43.41;101457.06;4880225;29;20120;-61
2022/12/07 11:15:47;;;;;;;7.82;2.15;;;;;;;18.73;43.64;101455.38;4880427;29;20041;-61
2022/12/07 11:18:41;;;;;;;4.60;2.22;;;;;;;18.69;43.23;101451.28;4863347;29;20452;-61
2022/12/07 11:21:18;;;;;;;7.03;2.10;;;;;;;18.87;43.17;101441.09;4863982;29;20068;-62
2022/12/07 11:24:08;;;;;;;5.43;2.30;;;;;;;18.80;43.35;101440.09;4863684;29;20072;-61
2022/12/07 11:26:42;;;;;;;9.82;2.78;;;;;;;19.08;42.62;101438.75;4880599;29;20025;-61
2022/12/07 11:29:27;;;;;;;5.70;2.70;;;;;;;19.29;42.25;101434.69;4880013;29;20081;-61
2022/12/07 11:32:10;;;;;;;10.05;2.80;;;;;;;19.11;42.39;101441.13;4879967;29;20041;-61